sensor_id;sensor_type;location;lat;lon;timestamp;P1;durP1;ratioP1;P2;durP2;ratioP2
16967;SDS011;8600;54.338;10.128;2022-08-25T00:01:13;7.45;;;3.40;;
16967;SDS011;8600;54.338;10.128;2022-08-25T00:03:42;8.15;;;3.63;;
16967;SDS011;8600;54.338;10.128;2022-08-25T00:06:10;9.02;;;3.40;;
16967;SDS011;8600;54.338;10.128;2022-08-25T00:08:37;8.52;;;3.17;;
16967;SDS011;8600;54.338;10.128;2022-08-25T00:11:06;7.70;;;3.40;;
16967;SDS011;8600;54.338;10.128;2022-08-25T00:13:36;9.85;;;3.70;;
16967;SDS011;8600;54.338;10.128;2022-08-25T00:16:04;7.32;;;3.53;;
16967;SDS011;8600;54.338;10.128;2022-08-25T00:18:32;8.60;;;3.40;;
16967;SDS011;8600;54.338;10.128;2022-08-25T00:21:01;7.78;;;3.30;;
16967;SDS011;8600;54.338;10.128;2022-08-25T00:23:28;7.18;;;3.70;;
16967;SDS011;8600;54.338;10.128;2022-08-25T00:25:55;8.68;;;4.20;;
16967;SDS011;8600;54.338;10.128;2022-08-25T00:28:22;9.43;;;3.45;;
16967;SDS011;8600;54.338;10.128;2022-08-25T00:30:49;16.58;;;4.40;;
16967;SDS011;8600;54.338;10.128;2022-08-25T00:33:18;7.57;;;3.63;;
16967;SDS011;8600;54.338;10.128;2022-08-25T00:35:45;13.43;;;3.78;;
16967;SDS011;8600;54.338;10.128;2022-08-25T00:38:12;9.43;;;3.65;;
16967;SDS011;8600;54.338;10.128;2022-08-25T00:40:41;12.75;;;3.90;;
16967;SDS011;8600;54.338;10.128;2022-08-25T00:43:09;7.38;;;3.90;;
16967;SDS011;8600;54.338;10.128;2022-08-25T00:45:36;10.80;;;3.90;;
16967;SDS011;8600;54.338;10.128;2022-08-25T00:48:03;7.65;;;3.70;;
16967;SDS011;8600;54.338;10.128;2022-08-25T00:50:32;8.95;;;3.70;;
16967;SDS011;8600;54.338;10.128;2022-08-25T00:53:01;7.30;;;3.03;;
16967;SDS011;8600;54.338;10.128;2022-08-25T00:55:30;10.13;;;3.92;;
16967;SDS011;8600;54.338;10.128;2022-08-25T00:58:01;6.57;;;3.60;;
16967;SDS011;8600;54.338;10.128;2022-08-25T01:00:33;9.07;;;3.80;;
16967;SDS011;8600;54.338;10.128;2022-08-25T01:03:02;9.95;;;3.83;;
16967;SDS011;8600;54.338;10.128;2022-08-25T01:05:29;12.68;;;4.07;;
16967;SDS011;8600;54.338;10.128;2022-08-25T01:07:59;7.45;;;3.47;;
16967;SDS011;8600;54.338;10.128;2022-08-25T01:10:28;11.05;;;4.53;;
16967;SDS011;8600;54.338;10.128;2022-08-25T01:12:57;7.88;;;3.45;;
16967;SDS011;8600;54.338;10.128;2022-08-25T01:15:27;8.65;;;4.00;;
16967;SDS011;8600;54.338;10.128;2022-08-25T01:17:56;7.72;;;3.80;;
16967;SDS011;8600;54.338;10.128;2022-08-25T01:20:24;7.90;;;3.65;;
16967;SDS011;8600;54.338;10.128;2022-08-25T01:22:54;10.23;;;4.00;;
16967;SDS011;8600;54.338;10.128;2022-08-25T01:25:24;12.82;;;3.95;;
16967;SDS011;8600;54.338;10.128;2022-08-25T01:28:02;8.15;;;3.85;;
16967;SDS011;8600;54.338;10.128;2022-08-25T01:30:29;8.80;;;3.70;;
16967;SDS011;8600;54.338;10.128;2022-08-25T01:32:56;8.05;;;4.13;;
16967;SDS011;8600;54.338;10.128;2022-08-25T01:35:23;12.73;;;3.97;;
16967;SDS011;8600;54.338;10.128;2022-08-25T01:37:50;10.00;;;4.00;;
16967;SDS011;8600;54.338;10.128;2022-08-25T01:40:18;6.70;;;3.92;;
16967;SDS011;8600;54.338;10.128;2022-08-25T01:42:52;8.85;;;4.28;;
16967;SDS011;8600;54.338;10.128;2022-08-25T01:45:24;8.82;;;4.32;;
16967;SDS011;8600;54.338;10.128;2022-08-25T01:47:51;10.82;;;4.63;;
16967;SDS011;8600;54.338;10.128;2022-08-25T01:50:18;10.07;;;4.47;;
16967;SDS011;8600;54.338;10.128;2022-08-25T01:52:50;7.22;;;4.43;;
16967;SDS011;8600;54.338;10.128;2022-08-25T01:55:21;9.20;;;4.85;;
16967;SDS011;8600;54.338;10.128;2022-08-25T01:57:48;11.35;;;4.50;;
16967;SDS011;8600;54.338;10.128;2022-08-25T02:00:16;8.82;;;4.18;;
16967;SDS011;8600;54.338;10.128;2022-08-25T02:02:44;9.75;;;4.70;;
16967;SDS011;8600;54.338;10.128;2022-08-25T02:05:12;10.93;;;4.65;;
16967;SDS011;8600;54.338;10.128;2022-08-25T02:07:40;8.57;;;4.70;;
16967;SDS011;8600;54.338;10.128;2022-08-25T02:10:08;12.40;;;4.68;;
16967;SDS011;8600;54.338;10.128;2022-08-25T02:12:39;9.25;;;4.60;;
16967;SDS011;8600;54.338;10.128;2022-08-25T02:15:06;13.25;;;4.85;;
16967;SDS011;8600;54.338;10.128;2022-08-25T02:17:34;11.30;;;4.90;;
16967;SDS011;8600;54.338;10.128;2022-08-25T02:20:02;13.40;;;5.50;;
16967;SDS011;8600;54.338;10.128;2022-08-25T02:22:31;8.48;;;5.00;;
16967;SDS011;8600;54.338;10.128;2022-08-25T02:24:58;9.68;;;4.57;;
16967;SDS011;8600;54.338;10.128;2022-08-25T02:27:25;10.98;;;5.07;;
16967;SDS011;8600;54.338;10.128;2022-08-25T02:29:53;11.13;;;4.88;;
16967;SDS011;8600;54.338;10.128;2022-08-25T02:32:20;10.30;;;5.15;;
16967;SDS011;8600;54.338;10.128;2022-08-25T02:34:47;10.77;;;5.20;;
16967;SDS011;8600;54.338;10.128;2022-08-25T02:37:14;12.40;;;5.55;;
16967;SDS011;8600;54.338;10.128;2022-08-25T02:39:41;11.25;;;5.30;;
16967;SDS011;8600;54.338;10.128;2022-08-25T02:42:08;10.45;;;5.78;;
16967;SDS011;8600;54.338;10.128;2022-08-25T02:44:35;11.77;;;5.72;;
16967;SDS011;8600;54.338;10.128;2022-08-25T02:47:03;10.20;;;5.90;;
16967;SDS011;8600;54.338;10.128;2022-08-25T02:49:30;12.30;;;5.90;;
16967;SDS011;8600;54.338;10.128;2022-08-25T02:51:57;10.45;;;6.28;;
16967;SDS011;8600;54.338;10.128;2022-08-25T02:54:25;12.13;;;5.80;;
16967;SDS011;8600;54.338;10.128;2022-08-25T02:56:52;10.70;;;6.47;;
16967;SDS011;8600;54.338;10.128;2022-08-25T02:59:19;13.70;;;5.97;;
16967;SDS011;8600;54.338;10.128;2022-08-25T03:01:46;9.38;;;5.50;;
16967;SDS011;8600;54.338;10.128;2022-08-25T03:04:14;19.52;;;6.50;;
16967;SDS011;8600;54.338;10.128;2022-08-25T03:06:42;15.60;;;6.88;;
16967;SDS011;8600;54.338;10.128;2022-08-25T03:09:08;15.57;;;6.20;;
16967;SDS011;8600;54.338;10.128;2022-08-25T03:11:35;12.30;;;6.03;;
16967;SDS011;8600;54.338;10.128;2022-08-25T03:14:03;14.32;;;6.10;;
16967;SDS011;8600;54.338;10.128;2022-08-25T03:16:30;13.38;;;6.03;;
16967;SDS011;8600;54.338;10.128;2022-08-25T03:18:57;14.73;;;6.60;;
16967;SDS011;8600;54.338;10.128;2022-08-25T03:21:26;12.48;;;6.28;;
16967;SDS011;8600;54.338;10.128;2022-08-25T03:23:54;10.88;;;6.47;;
16967;SDS011;8600;54.338;10.128;2022-08-25T03:26:21;12.32;;;6.70;;
16967;SDS011;8600;54.338;10.128;2022-08-25T03:29:06;14.32;;;6.82;;
16967;SDS011;8600;54.338;10.128;2022-08-25T03:31:34;14.55;;;7.28;;
16967;SDS011;8600;54.338;10.128;2022-08-25T03:34:03;12.30;;;7.15;;
16967;SDS011;8600;54.338;10.128;2022-08-25T03:36:31;12.05;;;7.00;;
16967;SDS011;8600;54.338;10.128;2022-08-25T03:38:58;13.95;;;7.03;;
16967;SDS011;8600;54.338;10.128;2022-08-25T03:41:27;12.15;;;7.53;;
16967;SDS011;8600;54.338;10.128;2022-08-25T03:43:57;18.13;;;8.07;;
16967;SDS011;8600;54.338;10.128;2022-08-25T03:46:25;13.55;;;8.02;;
16967;SDS011;8600;54.338;10.128;2022-08-25T03:48:53;14.10;;;8.38;;
16967;SDS011;8600;54.338;10.128;2022-08-25T03:51:21;14.90;;;8.27;;
16967;SDS011;8600;54.338;10.128;2022-08-25T03:53:51;13.45;;;7.70;;
16967;SDS011;8600;54.338;10.128;2022-08-25T03:56:18;12.05;;;7.82;;
16967;SDS011;8600;54.338;10.128;2022-08-25T03:58:45;16.30;;;8.50;;
16967;SDS011;8600;54.338;10.128;2022-08-25T04:01:13;14.20;;;8.10;;
16967;SDS011;8600;54.338;10.128;2022-08-25T04:03:40;15.40;;;8.70;;
16967;SDS011;8600;54.338;10.128;2022-08-25T04:06:07;14.88;;;8.15;;
16967;SDS011;8600;54.338;10.128;2022-08-25T04:08:34;19.58;;;10.77;;
16967;SDS011;8600;54.338;10.128;2022-08-25T04:11:06;14.93;;;8.77;;
16967;SDS011;8600;54.338;10.128;2022-08-25T04:13:34;15.77;;;9.30;;
16967;SDS011;8600;54.338;10.128;2022-08-25T04:16:02;17.48;;;9.57;;
16967;SDS011;8600;54.338;10.128;2022-08-25T04:18:29;20.25;;;10.32;;
16967;SDS011;8600;54.338;10.128;2022-08-25T04:21:01;14.85;;;9.38;;
16967;SDS011;8600;54.338;10.128;2022-08-25T04:23:30;19.25;;;9.82;;
16967;SDS011;8600;54.338;10.128;2022-08-25T04:25:57;19.85;;;10.57;;
16967;SDS011;8600;54.338;10.128;2022-08-25T04:28:25;21.83;;;11.52;;
16967;SDS011;8600;54.338;10.128;2022-08-25T04:30:52;21.75;;;11.40;;
16967;SDS011;8600;54.338;10.128;2022-08-25T04:33:19;23.67;;;12.68;;
16967;SDS011;8600;54.338;10.128;2022-08-25T04:35:46;22.90;;;11.93;;
16967;SDS011;8600;54.338;10.128;2022-08-25T04:38:14;22.80;;;12.63;;
16967;SDS011;8600;54.338;10.128;2022-08-25T04:40:41;22.27;;;12.60;;
16967;SDS011;8600;54.338;10.128;2022-08-25T04:43:08;25.35;;;13.73;;
16967;SDS011;8600;54.338;10.128;2022-08-25T04:45:37;22.80;;;12.60;;
16967;SDS011;8600;54.338;10.128;2022-08-25T04:48:05;20.58;;;11.75;;
16967;SDS011;8600;54.338;10.128;2022-08-25T04:50:32;22.70;;;13.07;;
16967;SDS011;8600;54.338;10.128;2022-08-25T04:52:59;22.58;;;12.35;;
16967;SDS011;8600;54.338;10.128;2022-08-25T04:55:26;24.70;;;12.63;;
16967;SDS011;8600;54.338;10.128;2022-08-25T04:57:53;24.95;;;12.73;;
16967;SDS011;8600;54.338;10.128;2022-08-25T05:00:21;20.80;;;11.93;;
16967;SDS011;8600;54.338;10.128;2022-08-25T05:02:49;24.40;;;11.90;;
16967;SDS011;8600;54.338;10.128;2022-08-25T05:05:16;23.83;;;12.77;;
16967;SDS011;8600;54.338;10.128;2022-08-25T05:07:43;20.20;;;11.10;;
16967;SDS011;8600;54.338;10.128;2022-08-25T05:10:11;19.05;;;10.60;;
16967;SDS011;8600;54.338;10.128;2022-08-25T05:12:38;21.15;;;10.38;;
16967;SDS011;8600;54.338;10.128;2022-08-25T05:15:05;21.40;;;10.77;;
16967;SDS011;8600;54.338;10.128;2022-08-25T05:17:48;17.50;;;10.45;;
16967;SDS011;8600;54.338;10.128;2022-08-25T05:20:15;17.80;;;11.00;;
16967;SDS011;8600;54.338;10.128;2022-08-25T05:22:43;18.70;;;10.70;;
16967;SDS011;8600;54.338;10.128;2022-08-25T05:25:11;16.00;;;10.00;;
16967;SDS011;8600;54.338;10.128;2022-08-25T05:27:38;15.32;;;9.85;;
16967;SDS011;8600;54.338;10.128;2022-08-25T05:30:06;17.77;;;10.20;;
16967;SDS011;8600;54.338;10.128;2022-08-25T05:32:35;14.00;;;9.10;;
16967;SDS011;8600;54.338;10.128;2022-08-25T05:35:04;15.80;;;9.60;;
16967;SDS011;8600;54.338;10.128;2022-08-25T05:37:32;12.20;;;8.40;;
16967;SDS011;8600;54.338;10.128;2022-08-25T05:39:59;15.88;;;8.27;;
16967;SDS011;8600;54.338;10.128;2022-08-25T05:42:26;16.20;;;7.88;;
16967;SDS011;8600;54.338;10.128;2022-08-25T05:44:53;19.23;;;8.23;;
16967;SDS011;8600;54.338;10.128;2022-08-25T05:47:20;15.48;;;7.22;;
16967;SDS011;8600;54.338;10.128;2022-08-25T05:49:47;20.35;;;7.70;;
16967;SDS011;8600;54.338;10.128;2022-08-25T05:52:16;14.48;;;7.00;;
16967;SDS011;8600;54.338;10.128;2022-08-25T05:54:43;14.25;;;7.00;;
16967;SDS011;8600;54.338;10.128;2022-08-25T05:57:09;12.95;;;7.10;;
16967;SDS011;8600;54.338;10.128;2022-08-25T05:59:36;13.85;;;6.65;;
16967;SDS011;8600;54.338;10.128;2022-08-25T06:02:03;11.80;;;6.53;;
16967;SDS011;8600;54.338;10.128;2022-08-25T06:04:53;11.75;;;6.32;;
16967;SDS011;8600;54.338;10.128;2022-08-25T06:07:23;12.48;;;6.65;;
16967;SDS011;8600;54.338;10.128;2022-08-25T06:09:50;14.65;;;6.50;;
16967;SDS011;8600;54.338;10.128;2022-08-25T06:12:17;11.68;;;6.25;;
16967;SDS011;8600;54.338;10.128;2022-08-25T06:14:45;11.70;;;6.47;;
16967;SDS011;8600;54.338;10.128;2022-08-25T06:17:13;12.10;;;5.85;;
16967;SDS011;8600;54.338;10.128;2022-08-25T06:19:41;10.93;;;5.70;;
16967;SDS011;8600;54.338;10.128;2022-08-25T06:22:08;12.55;;;5.88;;
16967;SDS011;8600;54.338;10.128;2022-08-25T06:24:37;12.80;;;5.57;;
16967;SDS011;8600;54.338;10.128;2022-08-25T06:27:03;11.55;;;5.25;;
16967;SDS011;8600;54.338;10.128;2022-08-25T06:29:31;9.50;;;4.93;;
16967;SDS011;8600;54.338;10.128;2022-08-25T06:31:57;10.98;;;4.70;;
16967;SDS011;8600;54.338;10.128;2022-08-25T06:34:25;13.57;;;5.50;;
16967;SDS011;8600;54.338;10.128;2022-08-25T06:36:52;10.98;;;4.95;;
16967;SDS011;8600;54.338;10.128;2022-08-25T06:39:18;11.60;;;5.00;;
16967;SDS011;8600;54.338;10.128;2022-08-25T06:41:50;10.32;;;5.10;;
16967;SDS011;8600;54.338;10.128;2022-08-25T06:44:18;11.38;;;4.95;;
16967;SDS011;8600;54.338;10.128;2022-08-25T06:46:45;10.07;;;4.88;;
16967;SDS011;8600;54.338;10.128;2022-08-25T06:49:12;12.70;;;5.20;;
16967;SDS011;8600;54.338;10.128;2022-08-25T06:51:39;11.32;;;4.88;;
16967;SDS011;8600;54.338;10.128;2022-08-25T06:54:06;9.73;;;4.53;;
16967;SDS011;8600;54.338;10.128;2022-08-25T06:56:35;10.10;;;4.80;;
16967;SDS011;8600;54.338;10.128;2022-08-25T06:59:04;11.63;;;4.88;;
16967;SDS011;8600;54.338;10.128;2022-08-25T07:01:31;14.23;;;4.82;;
16967;SDS011;8600;54.338;10.128;2022-08-25T07:03:59;8.80;;;4.25;;
16967;SDS011;8600;54.338;10.128;2022-08-25T07:06:29;9.65;;;4.10;;
16967;SDS011;8600;54.338;10.128;2022-08-25T07:08:57;11.48;;;4.50;;
16967;SDS011;8600;54.338;10.128;2022-08-25T07:11:24;10.95;;;3.83;;
16967;SDS011;8600;54.338;10.128;2022-08-25T07:13:51;10.18;;;3.90;;
16967;SDS011;8600;54.338;10.128;2022-08-25T07:16:20;9.35;;;4.00;;
16967;SDS011;8600;54.338;10.128;2022-08-25T07:18:48;10.65;;;3.80;;
16967;SDS011;8600;54.338;10.128;2022-08-25T07:21:15;9.10;;;4.00;;
16967;SDS011;8600;54.338;10.128;2022-08-25T07:23:42;9.65;;;3.67;;
16967;SDS011;8600;54.338;10.128;2022-08-25T07:26:09;9.57;;;4.15;;
16967;SDS011;8600;54.338;10.128;2022-08-25T07:28:38;10.85;;;3.83;;
16967;SDS011;8600;54.338;10.128;2022-08-25T07:31:05;7.82;;;3.58;;
16967;SDS011;8600;54.338;10.128;2022-08-25T07:33:34;8.15;;;3.55;;
16967;SDS011;8600;54.338;10.128;2022-08-25T07:36:01;8.68;;;3.67;;
16967;SDS011;8600;54.338;10.128;2022-08-25T07:38:27;9.98;;;3.83;;
16967;SDS011;8600;54.338;10.128;2022-08-25T07:40:59;10.18;;;3.88;;
16967;SDS011;8600;54.338;10.128;2022-08-25T07:43:27;6.30;;;3.78;;
16967;SDS011;8600;54.338;10.128;2022-08-25T07:45:54;8.32;;;3.83;;
16967;SDS011;8600;54.338;10.128;2022-08-25T07:48:21;8.02;;;4.00;;
16967;SDS011;8600;54.338;10.128;2022-08-25T07:50:50;8.93;;;4.10;;
16967;SDS011;8600;54.338;10.128;2022-08-25T07:53:18;10.50;;;4.05;;
16967;SDS011;8600;54.338;10.128;2022-08-25T07:55:45;8.00;;;4.07;;
16967;SDS011;8600;54.338;10.128;2022-08-25T07:58:12;8.07;;;4.07;;
16967;SDS011;8600;54.338;10.128;2022-08-25T08:00:40;8.88;;;3.90;;
16967;SDS011;8600;54.338;10.128;2022-08-25T08:03:08;8.50;;;4.07;;
16967;SDS011;8600;54.338;10.128;2022-08-25T08:05:35;11.27;;;3.95;;
16967;SDS011;8600;54.338;10.128;2022-08-25T08:08:07;10.50;;;4.00;;
16967;SDS011;8600;54.338;10.128;2022-08-25T08:10:34;9.00;;;3.58;;
16967;SDS011;8600;54.338;10.128;2022-08-25T08:13:04;7.78;;;3.90;;
16967;SDS011;8600;54.338;10.128;2022-08-25T08:15:31;7.75;;;3.70;;
16967;SDS011;8600;54.338;10.128;2022-08-25T08:17:58;12.25;;;3.75;;
16967;SDS011;8600;54.338;10.128;2022-08-25T08:20:26;12.55;;;3.78;;
16967;SDS011;8600;54.338;10.128;2022-08-25T08:22:55;8.80;;;4.25;;
16967;SDS011;8600;54.338;10.128;2022-08-25T08:25:24;8.63;;;4.05;;
16967;SDS011;8600;54.338;10.128;2022-08-25T08:27:51;7.05;;;3.75;;
16967;SDS011;8600;54.338;10.128;2022-08-25T08:30:18;8.38;;;3.85;;
16967;SDS011;8600;54.338;10.128;2022-08-25T08:32:45;9.38;;;3.47;;
16967;SDS011;8600;54.338;10.128;2022-08-25T08:35:14;10.98;;;3.92;;
16967;SDS011;8600;54.338;10.128;2022-08-25T08:37:43;10.93;;;3.90;;
16967;SDS011;8600;54.338;10.128;2022-08-25T08:40:10;11.43;;;3.92;;
16967;SDS011;8600;54.338;10.128;2022-08-25T08:42:45;8.50;;;3.40;;
16967;SDS011;8600;54.338;10.128;2022-08-25T08:45:26;9.98;;;3.80;;
16967;SDS011;8600;54.338;10.128;2022-08-25T08:48:00;10.50;;;3.85;;
16967;SDS011;8600;54.338;10.128;2022-08-25T08:50:37;11.82;;;3.60;;
16967;SDS011;8600;54.338;10.128;2022-08-25T08:53:13;9.65;;;3.72;;
16967;SDS011;8600;54.338;10.128;2022-08-25T08:55:47;6.78;;;3.30;;
16967;SDS011;8600;54.338;10.128;2022-08-25T08:58:18;11.30;;;4.20;;
16967;SDS011;8600;54.338;10.128;2022-08-25T09:00:48;11.27;;;3.50;;
16967;SDS011;8600;54.338;10.128;2022-08-25T09:03:24;8.40;;;3.75;;
16967;SDS011;8600;54.338;10.128;2022-08-25T09:05:55;7.00;;;3.25;;
16967;SDS011;8600;54.338;10.128;2022-08-25T09:08:26;6.35;;;3.03;;
16967;SDS011;8600;54.338;10.128;2022-08-25T09:10:55;12.90;;;3.30;;
16967;SDS011;8600;54.338;10.128;2022-08-25T09:13:30;11.68;;;3.33;;
16967;SDS011;8600;54.338;10.128;2022-08-25T09:16:07;5.72;;;3.13;;
16967;SDS011;8600;54.338;10.128;2022-08-25T09:19:00;9.07;;;3.13;;
16967;SDS011;8600;54.338;10.128;2022-08-25T09:21:38;8.73;;;3.40;;
16967;SDS011;8600;54.338;10.128;2022-08-25T09:24:17;10.23;;;3.70;;
16967;SDS011;8600;54.338;10.128;2022-08-25T09:26:58;10.55;;;3.92;;
16967;SDS011;8600;54.338;10.128;2022-08-25T09:29:41;9.45;;;3.25;;
16967;SDS011;8600;54.338;10.128;2022-08-25T09:32:16;9.20;;;3.03;;
16967;SDS011;8600;54.338;10.128;2022-08-25T09:34:43;7.53;;;3.45;;
16967;SDS011;8600;54.338;10.128;2022-08-25T09:37:12;11.35;;;3.70;;
16967;SDS011;8600;54.338;10.128;2022-08-25T09:39:40;9.82;;;3.70;;
16967;SDS011;8600;54.338;10.128;2022-08-25T09:42:07;18.27;;;4.07;;
16967;SDS011;8600;54.338;10.128;2022-08-25T09:44:38;11.23;;;3.72;;
16967;SDS011;8600;54.338;10.128;2022-08-25T09:47:12;6.75;;;3.28;;
16967;SDS011;8600;54.338;10.128;2022-08-25T09:49:46;8.52;;;3.78;;
16967;SDS011;8600;54.338;10.128;2022-08-25T09:57:55;8.80;;;3.33;;
16967;SDS011;8600;54.338;10.128;2022-08-25T10:00:25;8.25;;;2.85;;
16967;SDS011;8600;54.338;10.128;2022-08-25T10:03:06;7.40;;;2.92;;
16967;SDS011;8600;54.338;10.128;2022-08-25T10:05:37;11.73;;;3.13;;
16967;SDS011;8600;54.338;10.128;2022-08-25T10:08:21;10.63;;;3.20;;
16967;SDS011;8600;54.338;10.128;2022-08-25T10:10:52;9.05;;;3.10;;
16967;SDS011;8600;54.338;10.128;2022-08-25T10:13:30;9.30;;;2.88;;
16967;SDS011;8600;54.338;10.128;2022-08-25T10:16:03;10.95;;;3.00;;
16967;SDS011;8600;54.338;10.128;2022-08-25T10:18:32;9.57;;;2.95;;
16967;SDS011;8600;54.338;10.128;2022-08-25T10:21:00;10.13;;;3.10;;
16967;SDS011;8600;54.338;10.128;2022-08-25T10:23:29;8.70;;;3.08;;
16967;SDS011;8600;54.338;10.128;2022-08-25T10:25:57;7.03;;;2.90;;
16967;SDS011;8600;54.338;10.128;2022-08-25T10:28:31;12.55;;;3.03;;
16967;SDS011;8600;54.338;10.128;2022-08-25T10:31:05;9.98;;;2.90;;
16967;SDS011;8600;54.338;10.128;2022-08-25T10:33:43;10.43;;;2.80;;
16967;SDS011;8600;54.338;10.128;2022-08-25T10:36:20;10.30;;;3.25;;
16967;SDS011;8600;54.338;10.128;2022-08-25T10:38:53;8.35;;;2.72;;
16967;SDS011;8600;54.338;10.128;2022-08-25T10:41:33;10.88;;;2.80;;
16967;SDS011;8600;54.338;10.128;2022-08-25T10:44:10;10.75;;;2.90;;
16967;SDS011;8600;54.338;10.128;2022-08-25T10:47:08;11.30;;;3.08;;
16967;SDS011;8600;54.338;10.128;2022-08-25T10:49:53;8.35;;;2.95;;
16967;SDS011;8600;54.338;10.128;2022-08-25T10:52:22;7.95;;;3.00;;
16967;SDS011;8600;54.338;10.128;2022-08-25T10:55:04;7.80;;;2.83;;
16967;SDS011;8600;54.338;10.128;2022-08-25T10:57:38;7.13;;;2.83;;
16967;SDS011;8600;54.338;10.128;2022-08-25T11:00:12;8.57;;;3.00;;
16967;SDS011;8600;54.338;10.128;2022-08-25T11:05:37;9.07;;;3.17;;
16967;SDS011;8600;54.338;10.128;2022-08-25T11:08:07;6.28;;;3.00;;
16967;SDS011;8600;54.338;10.128;2022-08-25T11:10:41;6.97;;;2.70;;
16967;SDS011;8600;54.338;10.128;2022-08-25T11:13:14;9.32;;;3.33;;
16967;SDS011;8600;54.338;10.128;2022-08-25T11:15:49;9.45;;;3.00;;
16967;SDS011;8600;54.338;10.128;2022-08-25T11:18:19;8.52;;;3.00;;
16967;SDS011;8600;54.338;10.128;2022-08-25T11:20:58;12.23;;;3.22;;
16967;SDS011;8600;54.338;10.128;2022-08-25T11:23:32;10.20;;;3.13;;
16967;SDS011;8600;54.338;10.128;2022-08-25T11:26:05;9.00;;;3.08;;
16967;SDS011;8600;54.338;10.128;2022-08-25T11:28:38;10.13;;;2.90;;
16967;SDS011;8600;54.338;10.128;2022-08-25T11:31:16;9.18;;;3.20;;
16967;SDS011;8600;54.338;10.128;2022-08-25T11:33:46;6.75;;;3.42;;
16967;SDS011;8600;54.338;10.128;2022-08-25T11:36:15;8.68;;;3.33;;
16967;SDS011;8600;54.338;10.128;2022-08-25T11:38:51;10.57;;;3.20;;
16967;SDS011;8600;54.338;10.128;2022-08-25T11:41:26;9.57;;;3.45;;
16967;SDS011;8600;54.338;10.128;2022-08-25T11:44:04;7.05;;;3.03;;
16967;SDS011;8600;54.338;10.128;2022-08-25T11:49:25;6.68;;;2.92;;
16967;SDS011;8600;54.338;10.128;2022-08-25T11:55:19;9.02;;;2.85;;
16967;SDS011;8600;54.338;10.128;2022-08-25T11:57:49;9.43;;;3.45;;
16967;SDS011;8600;54.338;10.128;2022-08-25T12:06:16;10.90;;;2.80;;
16967;SDS011;8600;54.338;10.128;2022-08-25T12:08:46;7.65;;;2.90;;
16967;SDS011;8600;54.338;10.128;2022-08-25T12:14:16;7.60;;;2.70;;
16967;SDS011;8600;54.338;10.128;2022-08-25T12:17:02;6.45;;;3.20;;
16967;SDS011;8600;54.338;10.128;2022-08-25T12:19:46;10.68;;;3.10;;
16967;SDS011;8600;54.338;10.128;2022-08-25T12:25:11;7.80;;;3.40;;
16967;SDS011;8600;54.338;10.128;2022-08-25T12:27:47;9.18;;;3.30;;
16967;SDS011;8600;54.338;10.128;2022-08-25T12:30:26;9.82;;;3.30;;
16967;SDS011;8600;54.338;10.128;2022-08-25T12:32:59;9.70;;;2.85;;
16967;SDS011;8600;54.338;10.128;2022-08-25T12:35:32;9.40;;;3.15;;
16967;SDS011;8600;54.338;10.128;2022-08-25T12:38:06;9.10;;;3.13;;
16967;SDS011;8600;54.338;10.128;2022-08-25T12:43:21;9.43;;;3.17;;
16967;SDS011;8600;54.338;10.128;2022-08-25T12:54:23;8.65;;;2.85;;
16967;SDS011;8600;54.338;10.128;2022-08-25T12:56:57;11.38;;;2.80;;
16967;SDS011;8600;54.338;10.128;2022-08-25T12:59:34;8.27;;;2.90;;
16967;SDS011;8600;54.338;10.128;2022-08-25T13:02:11;10.30;;;3.60;;
16967;SDS011;8600;54.338;10.128;2022-08-25T13:05:10;10.43;;;2.80;;
16967;SDS011;8600;54.338;10.128;2022-08-25T13:08:01;9.52;;;3.00;;
16967;SDS011;8600;54.338;10.128;2022-08-25T13:10:47;9.15;;;2.72;;
16967;SDS011;8600;54.338;10.128;2022-08-25T13:13:20;7.80;;;2.80;;
16967;SDS011;8600;54.338;10.128;2022-08-25T13:15:57;6.65;;;2.70;;
16967;SDS011;8600;54.338;10.128;2022-08-25T13:18:26;6.63;;;2.65;;
16967;SDS011;8600;54.338;10.128;2022-08-25T13:21:00;8.88;;;2.50;;
16967;SDS011;8600;54.338;10.128;2022-08-25T13:23:31;9.60;;;2.72;;
16967;SDS011;8600;54.338;10.128;2022-08-25T13:26:03;10.73;;;3.00;;
16967;SDS011;8600;54.338;10.128;2022-08-25T13:28:32;8.13;;;2.80;;
16967;SDS011;8600;54.338;10.128;2022-08-25T13:31:02;8.82;;;2.63;;
16967;SDS011;8600;54.338;10.128;2022-08-25T13:33:32;6.82;;;2.40;;
16967;SDS011;8600;54.338;10.128;2022-08-25T13:36:03;8.05;;;2.92;;
16967;SDS011;8600;54.338;10.128;2022-08-25T13:39:08;7.60;;;2.58;;
16967;SDS011;8600;54.338;10.128;2022-08-25T13:41:44;12.35;;;2.67;;
16967;SDS011;8600;54.338;10.128;2022-08-25T13:46:39;13.02;;;2.80;;
16967;SDS011;8600;54.338;10.128;2022-08-25T13:49:07;10.10;;;2.58;;
16967;SDS011;8600;54.338;10.128;2022-08-25T13:51:35;8.75;;;2.75;;
16967;SDS011;8600;54.338;10.128;2022-08-25T13:54:06;13.43;;;2.90;;
16967;SDS011;8600;54.338;10.128;2022-08-25T13:56:49;10.88;;;2.50;;
16967;SDS011;8600;54.338;10.128;2022-08-25T13:59:19;9.02;;;2.70;;
16967;SDS011;8600;54.338;10.128;2022-08-25T14:01:51;7.22;;;2.50;;
16967;SDS011;8600;54.338;10.128;2022-08-25T14:04:21;8.15;;;2.60;;
16967;SDS011;8600;54.338;10.128;2022-08-25T14:07:07;10.88;;;3.13;;
16967;SDS011;8600;54.338;10.128;2022-08-25T14:09:43;9.88;;;2.70;;
16967;SDS011;8600;54.338;10.128;2022-08-25T14:12:26;8.55;;;2.70;;
16967;SDS011;8600;54.338;10.128;2022-08-25T14:15:06;10.27;;;2.70;;
16967;SDS011;8600;54.338;10.128;2022-08-25T14:17:36;9.85;;;2.80;;
16967;SDS011;8600;54.338;10.128;2022-08-25T14:20:14;9.90;;;2.88;;
16967;SDS011;8600;54.338;10.128;2022-08-25T14:22:50;12.02;;;2.85;;
16967;SDS011;8600;54.338;10.128;2022-08-25T14:25:20;12.25;;;3.00;;
16967;SDS011;8600;54.338;10.128;2022-08-25T14:27:54;9.82;;;2.85;;
16967;SDS011;8600;54.338;10.128;2022-08-25T14:30:22;8.02;;;2.50;;
16967;SDS011;8600;54.338;10.128;2022-08-25T14:32:49;12.52;;;3.10;;
16967;SDS011;8600;54.338;10.128;2022-08-25T14:35:16;8.23;;;2.58;;
16967;SDS011;8600;54.338;10.128;2022-08-25T14:37:43;8.07;;;2.95;;
16967;SDS011;8600;54.338;10.128;2022-08-25T14:40:11;11.10;;;3.00;;
16967;SDS011;8600;54.338;10.128;2022-08-25T14:42:40;11.18;;;2.70;;
16967;SDS011;8600;54.338;10.128;2022-08-25T14:45:09;10.63;;;3.20;;
16967;SDS011;8600;54.338;10.128;2022-08-25T14:47:36;9.75;;;2.90;;
16967;SDS011;8600;54.338;10.128;2022-08-25T14:50:03;7.88;;;2.75;;
16967;SDS011;8600;54.338;10.128;2022-08-25T14:52:32;8.32;;;3.20;;
16967;SDS011;8600;54.338;10.128;2022-08-25T14:54:59;9.82;;;2.88;;
16967;SDS011;8600;54.338;10.128;2022-08-25T14:57:26;11.23;;;3.00;;
16967;SDS011;8600;54.338;10.128;2022-08-25T14:59:53;13.60;;;3.40;;
16967;SDS011;8600;54.338;10.128;2022-08-25T15:02:23;10.15;;;2.97;;
16967;SDS011;8600;54.338;10.128;2022-08-25T15:04:53;8.57;;;2.83;;
16967;SDS011;8600;54.338;10.128;2022-08-25T15:07:22;10.25;;;2.83;;
16967;SDS011;8600;54.338;10.128;2022-08-25T15:10:08;8.98;;;2.90;;
16967;SDS011;8600;54.338;10.128;2022-08-25T15:12:35;9.73;;;2.67;;
16967;SDS011;8600;54.338;10.128;2022-08-25T15:15:02;9.32;;;2.60;;
16967;SDS011;8600;54.338;10.128;2022-08-25T15:17:31;7.90;;;2.60;;
16967;SDS011;8600;54.338;10.128;2022-08-25T15:19:58;9.30;;;3.28;;
16967;SDS011;8600;54.338;10.128;2022-08-25T15:22:25;8.88;;;2.97;;
16967;SDS011;8600;54.338;10.128;2022-08-25T15:24:52;8.60;;;2.67;;
16967;SDS011;8600;54.338;10.128;2022-08-25T15:27:20;12.98;;;3.15;;
16967;SDS011;8600;54.338;10.128;2022-08-25T15:29:48;7.32;;;2.90;;
16967;SDS011;8600;54.338;10.128;2022-08-25T15:32:14;11.82;;;3.33;;
16967;SDS011;8600;54.338;10.128;2022-08-25T15:34:43;9.25;;;3.00;;
16967;SDS011;8600;54.338;10.128;2022-08-25T15:37:11;10.23;;;2.70;;
16967;SDS011;8600;54.338;10.128;2022-08-25T15:39:40;12.48;;;2.67;;